Time;durP1;ratioP1;P1;durP2;ratioP2;P2;SDS_P1;SDS_P2;PMS_P1;PMS_P2;Temp;Humidity;BMP_temperature;BMP_pressure;BME280_temperature;BME280_humidity;BME280_pressure;Samples;Min_cycle;Max_cycle;Signal;HPM_P1;HPM_P2
2024/04/12 00:01:59;;;;;;;;;;;;;;;20.92;53.10;102206.75;13361303;21;20101;-66
2024/04/12 00:07:00;;;;;;;;;;;;;;;20.70;53.70;102201.69;13407663;21;20236;-69
2024/04/12 00:12:02;;;;;;;;;;;;;;;20.53;53.95;102215.03;13404912;21;19930;-67
2024/04/12 00:17:03;;;;;;;;;;;;;;;20.25;54.47;102197.75;13418547;21;20395;-67
2024/04/12 00:22:03;;;;;;;;;;;;;;;20.35;54.44;102198.19;13402995;21;20029;-67
2024/04/12 00:27:05;;;;;;;;;;;;;;;20.60;53.88;102195.13;13416560;21;20619;-67
2024/04/12 00:32:13;;;;;;;;;;;;;;;20.30;54.13;102197.53;13411260;21;20605;-67
2024/04/12 00:37:15;;;;;;;;;;;;;;;20.28;54.84;102194.09;13406808;21;20158;-68
2024/04/12 00:42:24;;;;;;;;;;;;;;;20.24;55.35;102182.72;13409911;21;20070;-66
2024/04/12 00:47:23;;;;;;;;;;;;;;;20.26;54.95;102187.97;13366473;21;20230;-66
2024/04/12 00:52:26;;;;;;;;;;;;;;;20.55;54.56;102184.72;13407924;21;20825;-67
2024/04/12 00:57:28;;;;;;;;;;;;;;;20.07;55.56;102190.72;13404339;21;20112;-67
2024/04/12 01:02:27;;;;;;;;;;;;;;;20.24;55.26;102181.84;13404683;21;20131;-67
2024/04/12 01:07:26;;;;;;;;;;;;;;;20.28;55.57;102183.44;13415840;21;20669;-67
2024/04/12 01:12:25;;;;;;;;;;;;;;;20.09;54.99;102179.94;13401070;21;20153;-67
2024/04/12 01:17:26;;;;;;;;;;;;;;;19.77;56.33;102178.91;13404369;21;20724;-67
2024/04/12 01:22:26;;;;;;;;;;;;;;;19.74;56.47;102173.75;13412557;21;20609;-66
2024/04/12 01:27:31;;;;;;;;;;;;;;;19.69;56.36;102178.41;13404081;21;20140;-67
2024/04/12 01:32:30;;;;;;;;;;;;;;;20.04;55.84;102181.97;13404242;21;20674;-67
2024/04/12 01:37:30;;;;;;;;;;;;;;;20.62;54.38;102179.94;13406552;21;19923;-67
2024/04/12 01:42:37;;;;;;;;;;;;;;;20.87;53.91;102185.66;13400483;21;20686;-67
2024/04/12 01:47:36;;;;;;;;;;;;;;;20.49;51.09;102186.81;13408071;21;20272;-67
2024/04/12 01:52:50;;;;;;;;;;;;;;;19.93;52.78;102190.53;13405237;21;20307;-67
2024/04/12 01:57:51;;;;;;;;;;;;;;;19.60;53.34;102177.03;13424511;21;20207;-67
2024/04/12 02:02:53;;;;;;;;;;;;;;;19.55;53.82;102180.88;13418817;21;20318;-67
2024/04/12 02:07:55;;;;;;;;;;;;;;;19.53;54.12;102186.28;13400462;21;20222;-67
2024/04/12 02:12:56;;;;;;;;;;;;;;;19.61;53.43;102180.56;13422857;21;20186;-67
2024/04/12 02:17:57;;;;;;;;;;;;;;;19.53;53.45;102204.91;13402862;21;20132;-67
2024/04/12 02:22:57;;;;;;;;;;;;;;;19.46;53.42;102203.44;13408206;21;20523;-66
2024/04/12 02:27:58;;;;;;;;;;;;;;;19.44;53.59;102206.19;13405370;21;20720;-67
2024/04/12 02:32:57;;;;;;;;;;;;;;;19.00;55.16;102202.88;13402677;21;20475;-66
2024/04/12 02:37:57;;;;;;;;;;;;;;;18.92;55.47;102209.47;13405256;21;20159;-67
2024/04/12 02:42:58;;;;;;;;;;;;;;;18.02;58.51;102208.00;13407136;21;20644;-67
2024/04/12 02:47:57;;;;;;;;;;;;;;;17.95;59.34;102214.47;13401023;21;20278;-66
2024/04/12 02:52:56;;;;;;;;;;;;;;;17.35;61.62;102223.00;13408016;21;20267;-67
2024/04/12 02:57:56;;;;;;;;;;;;;;;17.31;62.25;102219.59;13400337;21;20196;-68
2024/04/12 03:02:59;;;;;;;;;;;;;;;17.36;62.25;102221.22;13400403;21;19930;-66
2024/04/12 03:08:00;;;;;;;;;;;;;;;17.43;61.83;102220.94;13400341;21;19989;-67
2024/04/12 03:13:00;;;;;;;;;;;;;;;17.63;61.55;102226.38;13400719;21;20529;-67
2024/04/12 03:18:03;;;;;;;;;;;;;;;18.02;59.78;102225.72;13366050;21;20027;-67
2024/04/12 03:23:04;;;;;;;;;;;;;;;17.92;60.00;102227.88;13399634;21;20668;-67
2024/04/12 03:28:04;;;;;;;;;;;;;;;17.41;62.78;102236.03;13411706;21;20161;-66
2024/04/12 03:33:05;;;;;;;;;;;;;;;17.25;63.63;102243.69;13399750;21;20546;-67
2024/04/12 03:43:21;;;;;;;;;;;;;;;18.10;61.03;102239.53;13387759;21;20140;-67
2024/04/12 03:48:24;;;;;;;;;;;;;;;18.29;59.38;102245.81;13419803;21;20138;-67
2024/04/12 03:53:28;;;;;;;;;;;;;;;18.24;59.99;102261.06;13386158;21;20139;-67
2024/04/12 03:58:29;;;;;;;;;;;;;;;17.64;63.94;102262.56;13392773;21;20135;-67
2024/04/12 04:03:33;;;;;;;;;;;;;;;17.58;64.00;102264.56;13407314;21;20028;-67
2024/04/12 04:08:35;;;;;;;;;;;;;;;17.71;62.90;102265.84;13391207;21;20101;-67
2024/04/12 04:13:34;;;;;;;;;;;;;;;17.75;62.24;102268.31;13389269;21;20165;-68
2024/04/12 04:18:35;;;;;;;;;;;;;;;17.67;62.27;102269.56;13393154;21;20154;-67
2024/04/12 04:23:38;;;;;;;;;;;;;;;18.41;60.12;102266.56;13388259;21;20165;-67
2024/04/12 04:28:37;;;;;;;;;;;;;;;18.51;58.57;102278.53;13400155;21;20289;-67
2024/04/12 04:33:38;;;;;;;;;;;;;;;18.67;58.08;102281.41;13387378;21;20694;-67
2024/04/12 04:38:39;;;;;;;;;;;;;;;18.82;57.25;102278.09;13386550;21;20214;-67
2024/04/12 04:43:38;;;;;;;;;;;;;;;18.42;56.01;102283.34;13383884;21;20139;-67
2024/04/12 04:48:39;;;;;;;;;;;;;;;18.17;56.96;102283.50;13398353;21;20276;-67
2024/04/12 04:53:39;;;;;;;;;;;;;;;18.23;57.60;102285.03;13386990;21;19934;-68
2024/04/12 04:58:41;;;;;;;;;;;;;;;18.10;58.74;102282.00;13386352;21;20335;-68
2024/04/12 05:03:42;;;;;;;;;;;;;;;17.70;60.94;102288.84;13403231;21;20774;-68
2024/04/12 05:08:43;;;;;;;;;;;;;;;17.43;61.98;102297.84;13397161;21;20176;-68
2024/04/12 05:13:41;;;;;;;;;;;;;;;17.10;63.33;102299.06;13348232;21;20161;-68
2024/04/12 05:18:44;;;;;;;;;;;;;;;17.42;63.69;102313.78;13390716;21;20032;-68
2024/04/12 05:23:43;;;;;;;;;;;;;;;17.28;65.52;102315.16;13340048;21;20143;-67
2024/04/12 05:28:43;;;;;;;;;;;;;;;17.66;65.45;102324.38;13393912;21;20247;-67
2024/04/12 11:33:39;;;;;;;;;;;;;;;23.82;40.36;102154.66;13645437;21;19924;-68
2024/04/12 11:38:47;;;;;;;;;;;;;;;23.97;40.20;102146.47;13753593;21;19934;-67
2024/04/12 11:43:47;;;;;;;;;;;;;;;23.78;40.36;102143.28;13756301;21;19927;-66
2024/04/12 11:48:49;;;;;;;;;;;;;;;23.91;39.83;102138.81;13753888;21;19923;-67
2024/04/12 11:53:48;;;;;;;;;;;;;;;24.33;39.13;102137.78;13757980;21;20689;-67
2024/04/12 11:58:47;;;;;;;;;;;;;;;24.09;39.09;102136.75;13756060;21;20422;-65
2024/04/12 12:03:49;;;;;;;;;;;;;;;23.93;40.03;102136.91;13758744;21;19932;-66
2024/04/12 12:08:57;;;;;;;;;;;;;;;24.02;39.34;102127.38;13758007;21;20413;-67
2024/04/12 12:13:55;;;;;;;;;;;;;;;24.23;39.45;102115.25;13753256;21;19947;-66
2024/04/12 12:18:57;;;;;;;;;;;;;;;24.29;38.64;102103.25;13700381;21;19923;-67
2024/04/12 12:23:55;;;;;;;;;;;;;;;24.66;38.39;102105.06;13751557;21;20452;-68
2024/04/12 12:28:55;;;;;;;;;;;;;;;24.22;38.67;102102.81;13750318;21;19963;-68
2024/04/12 12:33:54;;;;;;;;;;;;;;;24.23;38.83;102099.16;13747576;21;19939;-68
2024/04/12 12:38:55;;;;;;;;;;;;;;;24.64;38.29;102087.34;13759074;21;19930;-69
2024/04/12 12:43:54;;;;;;;;;;;;;;;24.64;37.73;102080.16;13763485;21;19923;-68
2024/04/12 12:48:52;;;;;;;;;;;;;;;25.13;36.97;102074.84;13759107;21;19927;-68
2024/04/12 12:53:53;;;;;;;;;;;;;;;24.90;37.09;102062.25;13754624;21;19947;-68
2024/04/12 12:58:56;;;;;;;;;;;;;;;24.92;37.52;102063.00;13752270;21;19942;-68
2024/04/12 13:03:58;;;;;;;;;;;;;;;25.09;37.09;102054.56;13753512;21;19923;-68
2024/04/12 13:08:58;;;;;;;;;;;;;;;24.88;37.31;102046.25;13759189;21;20033;-69
2024/04/12 13:14:01;;;;;;;;;;;;;;;24.68;37.67;102043.28;13762733;21;19923;-69
2024/04/12 13:19:00;;;;;;;;;;;;;;;25.21;36.68;102028.66;13757594;21;19923;-69
2024/04/12 13:24:00;;;;;;;;;;;;;;;25.21;36.82;102034.03;13755920;21;19923;-68
2024/04/12 13:29:04;;;;;;;;;;;;;;;25.08;37.10;102031.38;13762486;21;20364;-68
2024/04/12 13:34:08;;;;;;;;;;;;;;;25.18;36.91;102032.41;13758170;21;19923;-68
2024/04/12 13:39:13;;;;;;;;;;;;;;;25.39;36.34;102027.28;13759398;21;20506;-68
2024/04/12 13:44:25;;;;;;;;;;;;;;;25.55;36.56;102019.81;13757223;21;19934;-69
2024/04/12 13:54:39;;;;;;;;;;;;;;;25.33;36.02;102001.75;13759957;21;20655;-68
2024/04/12 13:59:44;;;;;;;;;;;;;;;25.79;35.99;102012.56;13756155;21;20557;-68
2024/04/12 14:04:43;;;;;;;;;;;;;;;25.73;35.68;102013.03;13756074;21;19992;-68
2024/04/12 14:09:44;;;;;;;;;;;;;;;25.64;35.87;102004.81;13752811;21;19930;-68
2024/04/12 14:14:45;;;;;;;;;;;;;;;25.86;35.88;101997.66;13759291;21;19923;-68
2024/04/12 14:19:44;;;;;;;;;;;;;;;25.15;36.68;101984.34;13750558;21;20641;-68
2024/04/12 14:29:59;;;;;;;;;;;;;;;24.80;37.18;101986.91;13750019;21;19930;-67
2024/04/12 14:34:58;;;;;;;;;;;;;;;24.93;37.67;101981.53;13764458;21;19949;-68
2024/04/12 14:40:18;;;;;;;;;;;;;;;24.54;38.37;101970.03;13763013;21;19924;-66
2024/04/12 14:45:19;;;;;;;;;;;;;;;24.68;38.03;101974.38;13764551;21;20498;-68
2024/04/12 14:50:18;;;;;;;;;;;;;;;25.29;36.63;101965.38;13764710;21;20413;-67
2024/04/12 14:55:18;;;;;;;;;;;;;;;25.69;36.14;101960.53;13767982;21;20458;-67
2024/04/12 15:00:20;;;;;;;;;;;;;;;25.79;36.03;101955.28;13769475;21;20022;-67
2024/04/12 15:52:24;;;;;;;;;;;;;;;27.87;31.76;101932.63;13769535;21;20012;-67
2024/04/12 16:13:14;;;;;;;;;;;;;;;25.70;36.06;101923.78;13770458;21;19924;-67
2024/04/12 16:18:15;;;;;;;;;;;;;;;25.56;36.37;101919.44;13773693;21;19930;-65
2024/04/12 16:23:16;;;;;;;;;;;;;;;25.55;36.47;101922.28;13767795;21;20029;-66
2024/04/12 16:28:16;;;;;;;;;;;;;;;25.59;36.12;101913.00;13767271;21;19934;-66
2024/04/12 16:33:18;;;;;;;;;;;;;;;25.61;36.10;101911.06;13770265;21;20006;-67
2024/04/12 16:38:18;;;;;;;;;;;;;;;25.67;36.00;101911.41;13775691;21;20529;-66
2024/04/12 16:43:16;;;;;;;;;;;;;;;25.68;35.96;101917.66;13771599;21;19924;-66
2024/04/12 16:48:17;;;;;;;;;;;;;;;25.75;36.52;101919.75;13763707;21;19931;-67
2024/04/12 16:53:17;;;;;;;;;;;;;;;25.63;37.00;101935.97;13762322;21;19934;-66
2024/04/12 16:58:15;;;;;;;;;;;;;;;25.58;37.34;101930.09;13760127;21;20511;-66
2024/04/12 17:03:14;;;;;;;;;;;;;;;25.49;37.61;101936.13;13756682;21;19930;-65
2024/04/12 17:08:15;;;;;;;;;;;;;;;25.43;37.96;101934.78;13767883;21;19963;-67
2024/04/12 17:13:14;;;;;;;;;;;;;;;25.27;38.46;101940.44;13771193;21;19930;-65
2024/04/12 17:18:13;;;;;;;;;;;;;;;25.23;38.31;101935.44;13769705;21;20639;-66
2024/04/12 17:23:12;;;;;;;;;;;;;;;25.15;38.67;101933.34;13768645;21;19923;-66
2024/04/12 17:28:13;;;;;;;;;;;;;;;25.06;38.82;101942.09;13769796;21;19931;-68
2024/04/12 17:33:12;;;;;;;;;;;;;;;25.16;38.90;101943.13;13766067;21;20422;-68
2024/04/12 17:38:11;;;;;;;;;;;;;;;25.08;39.23;101941.97;13759710;21;19934;-68
2024/04/12 17:43:10;;;;;;;;;;;;;;;24.97;39.22;101943.63;13760864;21;19931;-68
2024/04/12 17:48:11;;;;;;;;;;;;;;;24.80;39.84;101948.50;13760505;21;19924;-68
2024/04/12 17:53:11;;;;;;;;;;;;;;;24.78;40.13;101951.28;13755905;21;19923;-68
2024/04/12 17:58:10;;;;;;;;;;;;;;;24.80;39.73;101951.19;13756472;21;19923;-68
2024/04/12 18:03:11;;;;;;;;;;;;;;;24.56;40.37;101949.34;13751096;21;19928;-69
2024/04/12 18:08:10;;;;;;;;;;;;;;;24.29;40.72;101947.81;13755634;21;19923;-69
2024/04/12 18:13:09;;;;;;;;;;;;;;;24.14;41.34;101947.88;13756595;21;20493;-69
2024/04/12 18:18:08;;;;;;;;;;;;;;;24.12;41.30;101943.59;13754957;21;19923;-69
2024/04/12 18:23:10;;;;;;;;;;;;;;;24.05;41.44;101950.34;13754568;21;20656;-69
2024/04/12 18:28:08;;;;;;;;;;;;;;;23.99;41.16;101942.75;13754791;21;19923;-69
2024/04/12 18:33:08;;;;;;;;;;;;;;;24.03;41.00;101946.94;13748847;21;19931;-69
2024/04/12 18:48:39;;;;;;;;;;;;;;;24.22;40.27;101944.69;13755233;21;19923;-69
2024/04/12 18:53:39;;;;;;;;;;;;;;;23.93;40.87;101940.50;13761097;21;19954;-69
2024/04/12 18:58:40;;;;;;;;;;;;;;;23.88;40.49;101945.31;13756863;21;19923;-69
2024/04/12 19:03:38;;;;;;;;;;;;;;;23.87;40.39;101947.13;13757790;21;19924;-69
2024/04/12 19:08:41;;;;;;;;;;;;;;;23.81;40.71;101954.72;13760988;21;20593;-69
2024/04/12 19:13:42;;;;;;;;;;;;;;;23.83;40.39;101947.47;13763248;21;19923;-69
2024/04/12 19:18:40;;;;;;;;;;;;;;;23.63;40.71;101956.88;13758712;21;19923;-69
2024/04/12 19:23:41;;;;;;;;;;;;;;;23.67;40.73;101963.72;13760193;21;20516;-69
2024/04/12 19:28:42;;;;;;;;;;;;;;;23.79;40.60;101956.69;13759676;21;19927;-69
2024/04/12 19:33:41;;;;;;;;;;;;;;;23.83;40.68;101966.22;13755868;21;19930;-69
2024/04/12 19:38:40;;;;;;;;;;;;;;;23.93;41.69;101967.28;13756324;21;19934;-69
2024/04/12 19:43:39;;;;;;;;;;;;;;;23.94;42.88;101974.38;13760173;21;19930;-69
2024/04/12 19:48:42;;;;;;;;;;;;;;;23.99;42.80;101970.41;13751176;21;19923;-69
2024/04/12 19:53:41;;;;;;;;;;;;;;;24.27;41.85;101963.97;13748779;21;20068;-69
2024/04/12 19:58:40;;;;;;;;;;;;;;;24.35;41.75;101966.09;13749075;21;19950;-69
2024/04/12 20:03:41;;;;;;;;;;;;;;;24.30;42.07;101969.09;13750620;21;19930;-69
2024/04/12 20:08:40;;;;;;;;;;;;;;;24.43;42.54;101953.88;13706009;21;20613;-69
2024/04/12 20:13:39;;;;;;;;;;;;;;;24.18;42.31;101943.19;13759214;21;20518;-68
2024/04/12 20:18:39;;;;;;;;;;;;;;;23.80;42.45;101958.41;13760765;21;19927;-69
2024/04/12 20:23:40;;;;;;;;;;;;;;;23.52;41.84;101956.75;13763763;21;19930;-69
2024/04/12 20:28:39;;;;;;;;;;;;;;;23.68;46.62;101957.41;13760736;21;19927;-69
2024/04/12 20:33:55;;;;;;;;;;;;;;;23.56;44.31;101959.09;13757060;21;19924;-68
2024/04/12 20:38:56;;;;;;;;;;;;;;;23.45;46.75;101972.38;13760481;21;19924;-69
2024/04/12 20:43:55;;;;;;;;;;;;;;;23.51;47.05;101979.13;13765380;21;20522;-70
2024/04/12 20:48:54;;;;;;;;;;;;;;;23.56;46.76;101972.50;13766028;21;19923;-69
2024/04/12 20:53:53;;;;;;;;;;;;;;;23.69;46.51;101967.16;13770974;21;19930;-69
2024/04/12 20:58:54;;;;;;;;;;;;;;;23.41;47.05;101968.13;13771442;21;19924;-70
2024/04/12 21:03:53;;;;;;;;;;;;;;;22.32;48.99;101967.31;13772546;21;20020;-69
2024/04/12 21:08:52;;;;;;;;;;;;;;;22.33;48.33;101966.34;13771945;21;20161;-69
2024/04/12 21:13:53;;;;;;;;;;;;;;;21.57;52.27;101971.88;13772529;21;19953;-69
2024/04/12 21:18:52;;;;;;;;;;;;;;;21.83;49.82;101962.28;13774937;21;20632;-69
2024/04/12 21:23:51;;;;;;;;;;;;;;;22.06;48.18;101966.25;13774615;21;19923;-69
2024/04/12 21:28:55;;;;;;;;;;;;;;;22.32;47.37;101969.97;13773364;21;19923;-69
2024/04/12 21:33:53;;;;;;;;;;;;;;;22.47;46.12;101963.66;13774527;21;19923;-69
2024/04/12 21:38:57;;;;;;;;;;;;;;;22.63;45.49;101972.41;13780650;21;19923;-69
2024/04/12 21:43:58;;;;;;;;;;;;;;;22.83;46.05;101969.34;13769961;21;19923;-69
2024/04/12 21:48:57;;;;;;;;;;;;;;;22.94;44.75;101974.00;13781908;21;19923;-70
2024/04/12 21:53:56;;;;;;;;;;;;;;;22.89;44.06;101968.06;13783991;21;19995;-69
2024/04/12 21:58:55;;;;;;;;;;;;;;;22.50;44.65;101967.94;13774975;21;20626;-69
2024/04/12 22:03:56;;;;;;;;;;;;;;;22.61;44.65;101977.00;13779426;21;20045;-69
2024/04/12 22:08:55;;;;;;;;;;;;;;;22.49;45.65;101977.78;13789542;21;20444;-69
2024/04/12 22:13:54;;;;;;;;;;;;;;;22.68;49.35;101972.09;13787497;21;19930;-69
2024/04/12 22:18:54;;;;;;;;;;;;;;;22.60;51.64;101969.94;13790174;21;20367;-69
2024/04/12 22:23:55;;;;;;;;;;;;;;;22.36;49.21;101975.03;13790431;21;19924;-69
2024/04/12 22:28:54;;;;;;;;;;;;;;;22.50;48.48;101973.28;13784153;21;19923;-69
2024/04/12 22:33:53;;;;;;;;;;;;;;;22.36;46.45;101968.81;13786479;21;20261;-69
2024/04/12 22:38:55;;;;;;;;;;;;;;;22.20;46.17;101979.59;13786498;21;20272;-69
2024/04/12 22:43:54;;;;;;;;;;;;;;;22.04;46.50;101974.34;13788247;21;20352;-69
2024/04/12 22:48:53;;;;;;;;;;;;;;;22.01;48.38;101971.88;13797680;21;19930;-69
2024/04/12 22:53:51;;;;;;;;;;;;;;;21.94;48.91;101980.38;13796756;21;19924;-69
2024/04/12 22:58:52;;;;;;;;;;;;;;;21.74;52.73;101997.56;13797850;21;19924;-69
2024/04/12 23:03:51;;;;;;;;;;;;;;;20.83;56.35;102012.66;13796947;21;19924;-69
2024/04/12 23:08:50;;;;;;;;;;;;;;;19.97;62.29;102011.06;13796681;21;19931;-69
2024/04/12 23:13:49;;;;;;;;;;;;;;;20.11;61.97;102007.69;13796634;21;19923;-69
2024/04/12 23:18:50;;;;;;;;;;;;;;;20.19;60.99;102013.44;13797287;21;19931;-69
2024/04/12 23:23:49;;;;;;;;;;;;;;;19.50;61.60;102013.50;13795155;21;20085;-69
2024/04/12 23:28:48;;;;;;;;;;;;;;;19.07;62.42;102020.03;13788171;21;19923;-69
2024/04/12 23:33:47;;;;;;;;;;;;;;;19.41;60.53;102021.91;13794351;21;20013;-69
2024/04/12 23:38:48;;;;;;;;;;;;;;;19.61;58.86;102020.94;13795578;21;19923;-69
2024/04/12 23:43:47;;;;;;;;;;;;;;;19.66;58.53;102022.44;13740969;21;20077;-69
2024/04/12 23:48:46;;;;;;;;;;;;;;;19.47;58.42;102016.31;13794453;21;19930;-69
2024/04/12 23:53:45;;;;;;;;;;;;;;;19.21;58.97;102017.56;13793841;21;19930;-69
2024/04/12 23:58:46;;;;;;;;;;;;;;;19.31;58.67;102026.81;13785285;21;19931;-69
